Time;durP1;ratioP1;P1;durP2;ratioP2;P2;SDS_P1;SDS_P2;PMS_P1;PMS_P2;Temp;Humidity;BMP_temperature;BMP_pressure;BME280_temperature;BME280_humidity;BME280_pressure;Samples;Min_cycle;Max_cycle;Signal;HPM_P1;HPM_P2
2023/06/24 00:00:12;;;;;;;4.85;4.00;;;24.00;68.80;;;;;;5091194;28;20188;-68
2023/06/24 00:02:41;;;;;;;6.95;3.70;;;24.00;68.80;;;;;;5073487;28;20209;-69
2023/06/24 00:05:08;;;;;;;8.00;3.40;;;24.00;68.90;;;;;;5091056;28;20196;-69
2023/06/24 00:07:43;;;;;;;5.03;3.78;;;24.00;69.70;;;;;;5107922;28;20213;-68
2023/06/24 00:10:14;;;;;;;5.20;3.60;;;24.00;70.00;;;;;;5091038;28;20259;-69
2023/06/24 00:12:41;;;;;;;4.10;3.70;;;24.00;70.00;;;;;;5073672;28;20220;-68
2023/06/24 00:15:09;;;;;;;8.52;3.90;;;24.00;69.70;;;;;;5090816;28;20173;-69
2023/06/24 00:17:35;;;;;;;8.52;3.50;;;24.00;69.40;;;;;;5087011;28;20181;-69
2023/06/24 00:20:04;;;;;;;10.55;3.70;;;24.00;69.80;;;;;;5078399;28;20185;-69
2023/06/24 00:22:30;;;;;;;5.25;3.60;;;24.00;70.00;;;;;;5090745;28;20216;-69
2023/06/24 00:24:56;;;;;;;4.55;3.80;;;24.00;70.00;;;;;;5119849;27;20283;-69
2023/06/24 00:27:22;;;;;;;4.53;3.75;;;24.00;70.10;;;;;;5076559;28;20303;-69
2023/06/24 00:29:48;;;;;;;7.70;3.80;;;24.00;70.20;;;;;;5102185;28;20270;-70
2023/06/24 00:32:13;;;;;;;5.45;3.60;;;24.10;70.30;;;;;;5086570;28;20564;-69
2023/06/24 00:34:43;;;;;;;6.40;3.80;;;24.00;70.30;;;;;;5073892;28;20282;-70
2023/06/24 00:37:12;;;;;;;11.65;3.90;;;24.00;70.40;;;;;;5072627;28;20238;-69
2023/06/24 00:39:38;;;;;;;7.75;3.47;;;24.10;70.70;;;;;;5073507;28;20260;-69
2023/06/24 00:42:06;;;;;;;5.72;3.67;;;24.10;70.70;;;;;;5089851;28;20210;-69
2023/06/24 00:44:31;;;;;;;4.75;3.60;;;24.10;70.90;;;;;;5087807;28;20285;-69
2023/06/24 00:47:02;;;;;;;9.00;3.72;;;24.10;71.00;;;;;;5078560;28;20180;-69
2023/06/24 00:49:27;;;;;;;6.75;3.72;;;24.10;71.80;;;;;;5084974;28;20191;-68
2023/06/24 00:51:55;;;;;;;6.32;3.75;;;24.10;71.00;;;;;;5089753;28;20209;-68
2023/06/24 00:54:21;;;;;;;7.15;4.07;;;24.10;71.10;;;;;;5090269;28;20177;-68
2023/06/24 00:56:47;;;;;;;8.02;3.95;;;24.10;71.40;;;;;;5090178;28;20180;-68
2023/06/24 00:59:16;;;;;;;4.63;3.67;;;24.10;71.50;;;;;;5073551;28;20184;-68
2023/06/24 01:01:45;;;;;;;4.35;3.78;;;24.10;71.40;;;;;;5071958;28;20216;-69
2023/06/24 01:04:11;;;;;;;6.95;3.67;;;24.10;71.50;;;;;;5073140;28;20193;-69
2023/06/24 01:06:43;;;;;;;5.75;3.97;;;24.10;71.40;;;;;;5098578;28;20193;-69
2023/06/24 01:09:09;;;;;;;3.70;3.40;;;24.10;72.10;;;;;;5089877;28;20232;-69
2023/06/24 01:11:35;;;;;;;5.55;3.33;;;24.00;71.30;;;;;;5097947;28;20258;-68
2023/06/24 01:14:00;;;;;;;5.55;3.70;;;24.00;71.30;;;;;;5085726;28;20181;-68
2023/06/24 01:16:47;;;;;;;4.72;3.85;;;24.10;71.40;;;;;;5069798;28;20185;-68
2023/06/24 01:19:33;;;;;;;3.53;3.22;;;24.10;71.70;;;;;;5067674;28;20639;-68
2023/06/24 01:22:26;;;;;;;4.82;3.60;;;24.10;71.60;;;;;;5088752;28;20283;-68
2023/06/24 01:25:16;;;;;;;10.55;4.03;;;24.10;72.60;;;;;;5078544;28;20213;-68
2023/06/24 01:27:57;;;;;;;11.13;4.22;;;24.20;71.80;;;;;;5105544;28;20220;-71
2023/06/24 01:30:43;;;;;;;6.32;3.60;;;24.10;69.70;;;;;;5090331;28;20189;-70
2023/06/24 01:33:19;;;;;;;4.90;3.67;;;23.80;69.80;;;;;;5089723;28;20350;-71
2023/06/24 01:35:47;;;;;;;9.55;3.85;;;23.60;69.80;;;;;;5072442;28;20195;-71
2023/06/24 01:38:46;;;;;;;7.68;3.90;;;23.60;69.80;;;;;;5075307;28;20192;-69
2023/06/24 01:41:18;;;;;;;6.65;3.92;;;23.50;69.60;;;;;;5071833;28;20197;-69
2023/06/24 01:43:45;;;;;;;6.13;3.30;;;23.40;69.40;;;;;;5078210;28;20271;-69
2023/06/24 01:46:17;;;;;;;4.45;3.70;;;23.40;69.20;;;;;;5082528;28;20193;-69
2023/06/24 01:48:45;;;;;;;3.80;3.40;;;23.40;69.90;;;;;;5076449;28;20217;-68
2023/06/24 01:51:17;;;;;;;4.03;3.50;;;23.40;68.80;;;;;;5093084;28;20330;-69
2023/06/24 01:53:49;;;;;;;4.22;3.28;;;23.40;68.70;;;;;;5084305;28;20189;-69
2023/06/24 01:56:17;;;;;;;4.15;3.53;;;23.30;68.50;;;;;;5086934;28;20197;-68
2023/06/24 01:58:48;;;;;;;4.10;3.50;;;23.30;68.50;;;;;;5108883;28;20561;-69
2023/06/24 02:01:15;;;;;;;3.88;3.47;;;23.30;68.70;;;;;;5082348;28;20211;-69
2023/06/24 02:03:42;;;;;;;4.00;3.47;;;23.30;68.60;;;;;;5102965;28;20275;-69
2023/06/24 02:06:09;;;;;;;4.00;3.70;;;23.20;68.40;;;;;;5084753;28;20227;-70
2023/06/24 02:08:38;;;;;;;4.15;3.20;;;23.20;68.40;;;;;;5092699;28;20678;-69
2023/06/24 02:11:05;;;;;;;3.75;3.35;;;23.30;68.50;;;;;;5092893;28;20286;-69
2023/06/24 02:13:35;;;;;;;4.28;3.88;;;23.30;68.20;;;;;;5092400;28;20719;-69
2023/06/24 02:16:06;;;;;;;4.03;3.72;;;23.30;68.70;;;;;;5092950;28;20185;-69
2023/06/24 02:18:37;;;;;;;3.97;3.53;;;23.30;69.00;;;;;;5097906;28;20188;-69
2023/06/24 02:21:04;;;;;;;4.93;3.72;;;23.30;68.50;;;;;;5073863;28;20231;-68
2023/06/24 02:23:31;;;;;;;4.63;3.38;;;23.20;67.50;;;;;;5080214;28;20204;-69
2023/06/24 02:26:01;;;;;;;8.25;3.75;;;23.20;67.50;;;;;;5064082;28;20285;-69
2023/06/24 02:28:29;;;;;;;3.63;3.25;;;23.10;67.30;;;;;;5088346;28;20255;-69
2023/06/24 02:30:56;;;;;;;3.95;3.55;;;23.10;67.10;;;;;;5092325;28;20170;-70
2023/06/24 02:33:22;;;;;;;4.05;3.60;;;23.10;67.00;;;;;;5071438;28;20211;-69
2023/06/24 02:35:48;;;;;;;4.05;3.42;;;23.10;66.80;;;;;;5073750;28;20189;-69
2023/06/24 02:38:14;;;;;;;4.47;3.35;;;23.10;66.60;;;;;;5092516;28;20185;-70
2023/06/24 02:40:42;;;;;;;3.67;3.38;;;23.10;66.60;;;;;;5075293;28;20195;-70
2023/06/24 02:43:07;;;;;;;4.03;3.08;;;23.10;66.50;;;;;;5074832;28;20211;-69
2023/06/24 02:45:34;;;;;;;3.53;3.03;;;23.10;66.50;;;;;;5092309;28;20185;-70
2023/06/24 02:48:00;;;;;;;3.65;3.35;;;23.10;66.40;;;;;;5091823;28;20205;-69
2023/06/24 02:50:28;;;;;;;7.20;3.83;;;23.10;66.40;;;;;;5091578;28;20185;-69
2023/06/24 02:52:54;;;;;;;7.20;3.45;;;23.00;65.80;;;;;;5074897;28;20231;-70
2023/06/24 02:55:26;;;;;;;6.97;3.35;;;23.00;66.10;;;;;;5071841;28;20186;-70
2023/06/24 02:57:58;;;;;;;7.40;3.28;;;23.00;66.10;;;;;;5091855;28;20185;-70
2023/06/24 03:00:25;;;;;;;3.95;3.53;;;22.90;66.00;;;;;;5105969;28;20225;-70
2023/06/24 03:03:14;;;;;;;3.75;3.45;;;23.00;66.10;;;;;;5091122;28;20270;-68
2023/06/24 03:05:50;;;;;;;4.03;3.22;;;23.00;66.20;;;;;;5091912;28;20197;-69
2023/06/24 03:08:17;;;;;;;5.75;3.65;;;22.90;65.90;;;;;;5071694;28;20209;-69
2023/06/24 03:10:45;;;;;;;4.00;3.50;;;22.90;65.90;;;;;;5090113;28;20181;-69
2023/06/24 03:13:17;;;;;;;4.93;3.00;;;23.00;65.80;;;;;;5069596;28;20205;-69
2023/06/24 03:15:46;;;;;;;5.40;3.40;;;22.90;65.70;;;;;;5090187;28;20234;-68
2023/06/24 03:18:12;;;;;;;6.25;3.63;;;22.90;65.50;;;;;;5075196;28;20196;-68
2023/06/24 03:20:39;;;;;;;9.98;3.40;;;22.90;65.50;;;;;;5075035;28;20195;-69
2023/06/24 03:23:09;;;;;;;5.20;3.75;;;22.90;65.60;;;;;;5074533;28;20225;-68
2023/06/24 03:25:36;;;;;;;4.13;2.92;;;22.80;65.40;;;;;;5091672;28;20188;-69
2023/06/24 03:28:07;;;;;;;5.15;3.42;;;22.90;65.40;;;;;;5091357;28;20277;-69
2023/06/24 03:30:37;;;;;;;3.63;2.88;;;22.80;65.40;;;;;;5091632;28;20261;-69
2023/06/24 03:33:06;;;;;;;3.35;3.00;;;22.80;65.40;;;;;;5091000;28;20205;-69
2023/06/24 03:35:32;;;;;;;3.40;3.10;;;22.80;65.30;;;;;;5070465;28;20185;-69
2023/06/24 03:38:02;;;;;;;3.08;2.83;;;22.80;65.20;;;;;;5066857;28;20185;-69
2023/06/24 03:40:29;;;;;;;3.75;3.13;;;22.70;65.10;;;;;;5071470;28;20189;-69
2023/06/24 03:42:55;;;;;;;3.63;3.30;;;22.80;65.20;;;;;;5065188;28;20243;-69
2023/06/24 03:45:21;;;;;;;6.47;2.65;;;22.70;65.00;;;;;;5091621;28;20185;-69
2023/06/24 03:47:47;;;;;;;3.83;3.00;;;22.70;65.00;;;;;;5091167;28;20218;-69
2023/06/24 03:50:12;;;;;;;7.05;3.33;;;22.70;65.00;;;;;;5091301;28;20180;-69
2023/06/24 03:52:38;;;;;;;4.20;3.45;;;22.80;65.10;;;;;;5073823;28;20201;-69
2023/06/24 03:55:06;;;;;;;4.45;3.10;;;22.80;65.00;;;;;;5096245;28;20188;-69
2023/06/24 03:57:31;;;;;;;3.65;2.97;;;22.80;65.00;;;;;;5098803;28;20228;-69
2023/06/24 03:59:58;;;;;;;3.28;2.90;;;22.70;65.00;;;;;;5082912;28;20275;-69
2023/06/24 04:02:24;;;;;;;3.88;3.28;;;22.80;65.00;;;;;;5079299;28;20252;-69
2023/06/24 04:04:51;;;;;;;3.63;3.25;;;22.70;64.90;;;;;;5075715;28;20196;-69
2023/06/24 04:07:27;;;;;;;3.45;3.00;;;22.70;65.00;;;;;;5074219;28;20190;-69
2023/06/24 04:09:56;;;;;;;6.25;3.47;;;22.70;65.00;;;;;;5101900;28;20181;-69
2023/06/24 04:12:22;;;;;;;5.32;3.72;;;22.70;65.00;;;;;;5108965;27;20206;-69
2023/06/24 04:14:48;;;;;;;4.72;3.47;;;22.70;65.00;;;;;;5072054;28;20189;-69
2023/06/24 04:17:14;;;;;;;3.38;3.08;;;22.70;65.00;;;;;;5098946;28;20177;-69
2023/06/24 04:19:40;;;;;;;4.75;3.03;;;22.70;65.10;;;;;;5091837;28;20185;-69
2023/06/24 04:22:06;;;;;;;3.83;3.30;;;22.70;65.10;;;;;;5077225;28;20206;-69
2023/06/24 04:24:32;;;;;;;3.00;2.80;;;22.70;65.00;;;;;;5078296;28;20181;-70
2023/06/24 04:26:58;;;;;;;4.78;3.50;;;22.70;65.10;;;;;;5081911;28;20180;-69
2023/06/24 04:29:24;;;;;;;3.47;3.15;;;22.70;65.30;;;;;;5096851;28;20212;-69
2023/06/24 04:31:49;;;;;;;3.78;3.38;;;22.70;65.30;;;;;;5110226;27;20216;-70
2023/06/24 04:34:16;;;;;;;3.53;3.13;;;22.70;65.50;;;;;;5094533;28;20180;-70
2023/06/24 04:36:42;;;;;;;4.05;3.17;;;22.70;65.30;;;;;;5072760;28;20212;-70
2023/06/24 04:39:08;;;;;;;3.40;3.03;;;22.70;65.30;;;;;;5090492;28;20189;-70
2023/06/24 04:41:34;;;;;;;5.20;3.35;;;22.70;65.40;;;;;;5089300;28;20260;-70
2023/06/24 04:44:00;;;;;;;4.20;3.28;;;22.70;65.40;;;;;;5082404;28;20185;-69
2023/06/24 04:46:26;;;;;;;6.60;3.38;;;22.70;65.40;;;;;;5091737;28;20184;-69
2023/06/24 04:48:51;;;;;;;3.08;2.88;;;22.70;65.40;;;;;;5090086;28;20594;-71
2023/06/24 04:51:17;;;;;;;5.95;3.13;;;22.70;65.40;;;;;;5086932;28;20192;-70
2023/06/24 04:53:43;;;;;;;5.00;3.10;;;22.80;65.90;;;;;;5086961;28;20185;-70
2023/06/24 04:56:09;;;;;;;3.20;2.90;;;22.80;65.90;;;;;;5094487;28;20319;-70
2023/06/24 04:58:34;;;;;;;3.45;3.05;;;22.80;65.90;;;;;;5082355;28;20192;-70
2023/06/24 05:01:00;;;;;;;3.17;2.70;;;22.80;65.90;;;;;;5091404;28;20575;-71
2023/06/24 05:03:26;;;;;;;3.53;3.22;;;22.80;66.00;;;;;;5069786;28;20205;-70
2023/06/24 05:05:52;;;;;;;3.92;3.50;;;22.80;65.90;;;;;;5099786;28;20203;-70
2023/06/24 05:08:17;;;;;;;3.47;3.17;;;22.80;65.90;;;;;;5079324;28;20263;-70
2023/06/24 05:10:43;;;;;;;3.88;3.28;;;22.80;66.00;;;;;;5123835;28;20195;-70
2023/06/24 05:13:09;;;;;;;7.05;3.53;;;22.80;66.20;;;;;;5083322;28;20208;-70
2023/06/24 05:15:35;;;;;;;8.77;3.42;;;22.80;66.30;;;;;;5094258;28;20189;-68
2023/06/24 05:18:01;;;;;;;4.07;3.63;;;22.80;66.60;;;;;;5079836;28;20188;-69
2023/06/24 05:20:27;;;;;;;7.90;3.58;;;22.70;66.50;;;;;;5099741;28;20195;-70
2023/06/24 05:22:54;;;;;;;5.75;3.50;;;22.80;66.60;;;;;;5093646;28;20209;-70
2023/06/24 05:25:20;;;;;;;6.45;3.40;;;22.80;66.80;;;;;;5094357;28;20204;-70
2023/06/24 05:27:46;;;;;;;3.88;3.53;;;22.80;67.00;;;;;;5085260;28;20224;-70
2023/06/24 05:30:13;;;;;;;4.22;3.50;;;22.80;67.10;;;;;;5077018;28;20238;-71
2023/06/24 05:32:39;;;;;;;4.10;3.30;;;22.80;67.30;;;;;;5083978;28;20197;-71
2023/06/24 05:35:05;;;;;;;3.75;3.25;;;22.80;67.30;;;;;;5119846;27;20191;-70
2023/06/24 05:37:31;;;;;;;5.22;3.15;;;22.90;67.40;;;;;;5092605;28;20224;-73
2023/06/24 05:39:57;;;;;;;4.43;3.83;;;23.00;67.70;;;;;;5092439;28;20218;-73
2023/06/24 05:42:23;;;;;;;4.18;3.33;;;23.00;67.60;;;;;;5102099;28;20266;-72
2023/06/24 05:44:49;;;;;;;6.63;3.30;;;23.10;67.70;;;;;;5103887;28;20256;-75
2023/06/24 05:47:15;;;;;;;7.43;3.65;;;23.10;67.80;;;;;;5115885;27;20197;-74
2023/06/24 05:49:40;;;;;;;4.28;3.10;;;23.10;67.70;;;;;;5089049;28;20223;-74
2023/06/24 05:52:06;;;;;;;3.78;3.20;;;23.20;68.10;;;;;;5097203;28;20210;-71
2023/06/24 05:54:32;;;;;;;3.95;3.55;;;23.20;67.90;;;;;;5100754;28;20214;-73
2023/06/24 05:56:58;;;;;;;3.72;3.22;;;23.20;67.80;;;;;;5094044;28;20177;-72
2023/06/24 05:59:24;;;;;;;9.32;3.67;;;23.20;68.00;;;;;;5102090;28;20197;-72
2023/06/24 06:01:49;;;;;;;6.07;3.13;;;23.20;67.90;;;;;;5107705;27;20745;-71
2023/06/24 06:04:15;;;;;;;6.13;3.42;;;23.30;68.10;;;;;;5066442;28;20188;-70
2023/06/24 06:06:41;;;;;;;5.88;3.35;;;23.30;67.80;;;;;;5088470;28;20193;-73
2023/06/24 06:09:07;;;;;;;6.45;3.38;;;23.30;67.90;;;;;;5092261;28;20204;-72
2023/06/24 06:11:33;;;;;;;11.10;3.50;;;23.30;67.70;;;;;;5072803;28;20235;-72
2023/06/24 06:13:58;;;;;;;6.13;3.53;;;23.30;67.50;;;;;;5090325;28;20189;-70
2023/06/24 06:16:25;;;;;;;8.55;3.30;;;23.30;67.90;;;;;;5073965;28;20569;-70
2023/06/24 06:18:51;;;;;;;5.88;3.45;;;23.40;68.20;;;;;;5076466;28;20674;-70
2023/06/24 06:21:16;;;;;;;8.43;3.78;;;23.10;65.90;;;;;;5082378;28;20195;-70
2023/06/24 06:23:42;;;;;;;5.43;3.42;;;22.90;66.10;;;;;;5105008;28;20192;-70
2023/06/24 06:26:08;;;;;;;18.48;4.57;;;22.70;65.90;;;;;;5088198;28;20260;-70
2023/06/24 06:28:34;;;;;;;8.32;3.17;;;22.80;65.70;;;;;;5075170;28;20270;-70
2023/06/24 06:31:00;;;;;;;5.95;3.38;;;22.50;65.50;;;;;;5088947;28;20177;-70
2023/06/24 06:33:26;;;;;;;4.35;3.50;;;22.40;65.40;;;;;;5074759;28;20308;-70
2023/06/24 06:35:51;;;;;;;7.55;3.58;;;22.50;65.00;;;;;;5073762;28;20181;-71
2023/06/24 06:38:17;;;;;;;5.70;3.53;;;22.40;65.10;;;;;;5088031;28;20196;-71
2023/06/24 06:40:43;;;;;;;7.57;3.55;;;22.40;65.30;;;;;;5073463;28;20195;-71
2023/06/24 06:43:09;;;;;;;4.20;3.50;;;22.40;65.50;;;;;;5088505;28;20212;-70
2023/06/24 06:45:35;;;;;;;6.60;3.30;;;22.40;64.80;;;;;;5091417;28;20197;-71
2023/06/24 06:48:05;;;;;;;4.15;3.45;;;22.40;64.30;;;;;;5089258;28;20262;-70
2023/06/24 06:50:31;;;;;;;5.25;3.58;;;22.30;64.20;;;;;;5071671;28;20334;-70
2023/06/24 06:52:56;;;;;;;4.07;3.40;;;22.30;63.40;;;;;;5071203;28;20241;-70
2023/06/24 06:55:22;;;;;;;4.65;3.28;;;22.20;63.20;;;;;;5091033;28;20231;-70
2023/06/24 06:57:48;;;;;;;5.88;3.35;;;22.20;63.40;;;;;;5092024;28;20205;-70
2023/06/24 07:00:14;;;;;;;4.63;3.28;;;22.30;63.50;;;;;;5084302;28;20199;-70
2023/06/24 07:02:40;;;;;;;3.40;3.10;;;22.20;63.20;;;;;;5071577;28;20213;-70
2023/06/24 07:05:06;;;;;;;3.58;3.28;;;22.40;63.40;;;;;;5073546;28;20193;-71
2023/06/24 07:07:32;;;;;;;9.63;3.47;;;22.30;63.50;;;;;;5081992;28;20276;-71
2023/06/24 07:09:58;;;;;;;12.23;4.30;;;22.40;64.30;;;;;;5064811;28;20276;-71
2023/06/24 07:12:24;;;;;;;12.15;3.63;;;22.60;65.40;;;;;;5079139;28;20210;-70
2023/06/24 07:14:51;;;;;;;7.38;3.53;;;22.70;63.80;;;;;;5078049;28;20281;-70
2023/06/24 07:17:16;;;;;;;6.38;3.65;;;22.80;63.90;;;;;;5073363;28;20268;-70
2023/06/24 07:19:42;;;;;;;8.68;3.53;;;22.90;63.90;;;;;;5088815;28;20272;-70
2023/06/24 07:22:08;;;;;;;7.97;3.45;;;22.90;63.50;;;;;;5089686;28;20282;-70
2023/06/24 07:24:34;;;;;;;8.05;3.63;;;23.00;63.60;;;;;;5079850;28;20185;-70
2023/06/24 07:26:59;;;;;;;9.65;3.72;;;23.00;63.50;;;;;;5095542;28;20196;-70
2023/06/24 07:29:25;;;;;;;5.95;3.40;;;23.10;63.50;;;;;;5070931;28;20212;-70
2023/06/24 07:31:51;;;;;;;5.13;3.70;;;23.10;63.40;;;;;;5071350;28;20209;-70
2023/06/24 07:34:17;;;;;;;4.90;3.30;;;23.10;63.40;;;;;;5065899;28;20200;-70
2023/06/24 07:36:42;;;;;;;4.40;3.15;;;23.10;63.30;;;;;;5086378;28;20197;-70
2023/06/24 07:39:08;;;;;;;4.38;3.47;;;23.10;63.30;;;;;;5094665;28;20557;-70
2023/06/24 07:41:34;;;;;;;5.65;3.53;;;23.10;63.30;;;;;;5075651;28;20213;-70
2023/06/24 07:44:00;;;;;;;5.57;3.42;;;23.10;63.30;;;;;;5090001;28;20183;-70
2023/06/24 07:46:27;;;;;;;3.55;3.13;;;23.20;63.40;;;;;;5078399;28;20187;-70
2023/06/24 07:48:54;;;;;;;4.05;3.33;;;23.20;63.40;;;;;;5079640;28;20662;-70
2023/06/24 07:51:20;;;;;;;4.05;3.17;;;23.20;63.40;;;;;;5097545;28;20275;-70
2023/06/24 07:53:45;;;;;;;4.30;3.28;;;23.20;63.30;;;;;;5099718;28;20184;-70
2023/06/24 07:56:11;;;;;;;4.65;4.00;;;23.20;63.30;;;;;;5081553;28;20188;-70
2023/06/24 07:58:38;;;;;;;3.72;2.97;;;23.20;63.30;;;;;;5078678;28;20192;-70
2023/06/24 08:01:04;;;;;;;4.63;3.33;;;23.20;63.30;;;;;;5100017;28;20218;-70
2023/06/24 08:03:30;;;;;;;3.78;2.75;;;23.30;63.40;;;;;;5077980;28;20265;-71
2023/06/24 08:05:56;;;;;;;6.70;3.08;;;23.30;63.50;;;;;;5084211;28;20200;-70
2023/06/24 08:08:22;;;;;;;4.43;3.25;;;23.20;63.40;;;;;;5099373;28;20224;-70
2023/06/24 08:10:48;;;;;;;4.22;2.92;;;23.30;63.50;;;;;;5089888;28;20181;-70
2023/06/24 08:13:14;;;;;;;4.85;3.17;;;23.30;63.60;;;;;;5090203;28;20208;-70
2023/06/24 08:15:39;;;;;;;4.80;2.90;;;23.30;64.40;;;;;;5071714;28;20246;-70
2023/06/24 08:18:05;;;;;;;3.30;3.00;;;23.30;63.60;;;;;;5097856;28;20195;-70
2023/06/24 08:20:31;;;;;;;4.53;3.53;;;23.30;63.60;;;;;;5090871;28;20216;-70
2023/06/24 08:22:57;;;;;;;3.03;2.75;;;23.30;63.60;;;;;;5098584;28;20315;-70
2023/06/24 08:25:22;;;;;;;5.05;3.60;;;23.30;63.70;;;;;;5079880;28;20189;-70
2023/06/24 08:27:48;;;;;;;5.43;3.40;;;23.30;63.60;;;;;;5076809;28;20208;-71
2023/06/24 08:30:15;;;;;;;3.25;2.83;;;23.30;63.50;;;;;;5080767;28;20185;-70
2023/06/24 08:32:41;;;;;;;4.90;3.55;;;23.30;63.60;;;;;;5086944;28;20206;-70
2023/06/24 08:35:09;;;;;;;5.57;3.47;;;23.30;63.60;;;;;;5084008;28;20651;-70
2023/06/24 08:37:36;;;;;;;4.90;3.40;;;23.30;63.60;;;;;;5074734;28;20188;-71
2023/06/24 08:40:04;;;;;;;7.20;4.57;;;23.40;63.60;;;;;;5098840;28;20184;-71
2023/06/24 08:42:30;;;;;;;9.10;5.30;;;23.40;63.60;;;;;;5106628;28;20277;-70
2023/06/24 08:44:56;;;;;;;6.78;4.65;;;23.40;63.60;;;;;;5084087;28;20216;-70
2023/06/24 08:47:24;;;;;;;5.53;4.60;;;23.40;63.50;;;;;;5090407;28;20238;-71
2023/06/24 08:50:10;;;;;;;4.45;3.70;;;23.50;63.50;;;;;;5110232;28;20184;-71
2023/06/24 08:52:38;;;;;;;6.55;3.75;;;23.50;63.60;;;;;;5084707;28;20225;-70
2023/06/24 08:55:07;;;;;;;4.38;3.92;;;23.50;63.40;;;;;;5092278;28;20177;-70
2023/06/24 08:57:33;;;;;;;4.60;4.10;;;23.50;63.40;;;;;;5125506;27;20205;-71
2023/06/24 08:59:58;;;;;;;4.63;3.60;;;23.40;63.50;;;;;;5084686;28;20217;-70
2023/06/24 09:02:24;;;;;;;4.72;4.15;;;23.50;63.80;;;;;;5083994;28;20585;-70
2023/06/24 09:04:51;;;;;;;3.95;3.65;;;23.40;63.60;;;;;;5092464;28;20192;-70
2023/06/24 09:07:27;;;;;;;4.53;4.13;;;23.40;63.50;;;;;;5118655;27;20211;-70
2023/06/24 09:09:54;;;;;;;4.18;3.55;;;23.50;63.70;;;;;;5099446;28;20172;-70
2023/06/24 09:12:20;;;;;;;4.95;3.67;;;23.40;63.60;;;;;;5087421;28;20196;-70
2023/06/24 09:14:50;;;;;;;3.80;3.50;;;23.40;63.60;;;;;;5105096;28;20637;-71
2023/06/24 09:17:17;;;;;;;4.70;3.80;;;23.50;63.50;;;;;;5104749;28;20184;-70
2023/06/24 09:19:43;;;;;;;3.80;3.40;;;23.50;63.50;;;;;;5098498;28;20242;-70
2023/06/24 09:22:17;;;;;;;4.35;3.95;;;23.50;63.50;;;;;;5084134;28;20208;-70
2023/06/24 09:24:48;;;;;;;3.90;3.35;;;23.50;63.50;;;;;;5091309;28;20181;-71
2023/06/24 09:27:21;;;;;;;3.83;3.35;;;23.50;63.70;;;;;;5109620;28;20196;-70
2023/06/24 09:29:47;;;;;;;3.58;3.20;;;23.60;63.80;;;;;;5093041;28;20185;-70
2023/06/24 09:32:14;;;;;;;5.30;3.95;;;23.60;63.70;;;;;;5108812;28;20200;-70
2023/06/24 09:34:40;;;;;;;3.65;3.35;;;23.50;63.50;;;;;;5101192;28;20189;-70
2023/06/24 09:37:06;;;;;;;3.80;3.40;;;23.60;63.70;;;;;;5091847;28;20271;-71
2023/06/24 09:39:40;;;;;;;4.60;4.20;;;23.50;63.60;;;;;;5097630;28;20198;-70
2023/06/24 09:42:07;;;;;;;4.18;3.80;;;23.50;63.70;;;;;;5110851;28;20238;-71
2023/06/24 09:44:33;;;;;;;4.75;3.70;;;23.50;63.60;;;;;;5075567;28;20618;-71
2023/06/24 09:46:59;;;;;;;3.80;3.50;;;23.60;63.90;;;;;;5109076;28;20216;-70
2023/06/24 09:49:26;;;;;;;3.70;3.40;;;23.60;63.70;;;;;;5087844;28;20235;-71
2023/06/24 09:51:57;;;;;;;4.20;3.42;;;23.60;63.80;;;;;;5096033;28;20212;-70
2023/06/24 09:54:27;;;;;;;4.40;3.65;;;23.60;63.70;;;;;;5087902;28;20263;-71
2023/06/24 09:56:56;;;;;;;4.93;3.78;;;23.60;63.80;;;;;;5094190;28;20275;-70
2023/06/24 09:59:24;;;;;;;3.58;3.28;;;23.60;63.90;;;;;;5085557;28;20235;-70
2023/06/24 10:01:53;;;;;;;3.40;3.03;;;23.60;63.80;;;;;;5091743;28;20227;-70
2023/06/24 10:04:24;;;;;;;3.90;3.50;;;23.60;63.80;;;;;;5125895;27;20561;-70
2023/06/24 10:06:50;;;;;;;3.58;3.28;;;23.60;63.90;;;;;;5090821;28;20184;-70
2023/06/24 10:09:17;;;;;;;3.85;3.33;;;23.60;63.80;;;;;;5110468;27;20244;-70
2023/06/24 10:11:47;;;;;;;4.07;3.65;;;23.60;64.00;;;;;;5084438;28;20301;-70
2023/06/24 10:14:18;;;;;;;3.70;3.40;;;23.60;64.00;;;;;;5092297;28;20188;-71
2023/06/24 10:16:44;;;;;;;3.75;3.33;;;23.60;63.70;;;;;;5093437;28;20184;-71
2023/06/24 10:19:18;;;;;;;4.63;3.50;;;23.60;63.80;;;;;;5074856;28;20237;-70
2023/06/24 10:21:57;;;;;;;4.25;3.08;;;23.60;63.90;;;;;;5091350;28;20208;-70
2023/06/24 10:24:39;;;;;;;3.65;3.35;;;23.60;63.70;;;;;;5078566;28;20189;-70
2023/06/24 10:27:16;;;;;;;3.50;3.20;;;23.60;63.80;;;;;;5089926;28;20182;-70
2023/06/24 10:29:47;;;;;;;3.65;3.35;;;23.60;63.70;;;;;;5104853;28;20207;-70
2023/06/24 10:32:13;;;;;;;3.45;3.15;;;23.60;63.70;;;;;;5100858;28;20204;-70
2023/06/24 10:34:46;;;;;;;3.28;2.97;;;23.60;63.70;;;;;;5088691;28;20191;-70
2023/06/24 10:37:17;;;;;;;3.38;3.05;;;23.60;63.80;;;;;;5118576;27;20277;-70
2023/06/24 10:40:02;;;;;;;3.70;3.40;;;23.60;64.00;;;;;;5099612;28;20193;-71
2023/06/24 10:42:41;;;;;;;3.53;3.22;;;23.60;63.70;;;;;;5062730;28;20209;-70
2023/06/24 10:45:09;;;;;;;3.38;3.17;;;23.60;63.60;;;;;;5097339;28;20189;-71
2023/06/24 10:47:42;;;;;;;3.63;3.20;;;23.60;63.70;;;;;;5082904;28;20181;-70
2023/06/24 10:50:10;;;;;;;3.28;3.00;;;23.60;63.80;;;;;;5092575;28;20185;-70
2023/06/24 10:52:43;;;;;;;4.10;3.70;;;23.60;63.50;;;;;;5086999;28;20620;-71
2023/06/24 10:55:09;;;;;;;2.90;2.70;;;23.60;63.80;;;;;;5085052;28;20176;-71
2023/06/24 10:57:35;;;;;;;3.30;3.00;;;23.60;63.60;;;;;;5091221;28;20185;-71
2023/06/24 11:00:04;;;;;;;3.83;2.95;;;23.60;63.70;;;;;;5091236;28;20181;-70
2023/06/24 11:02:30;;;;;;;3.60;3.30;;;23.60;63.60;;;;;;5090455;28;20205;-71
2023/06/24 11:05:00;;;;;;;3.88;3.28;;;23.60;63.70;;;;;;5098956;28;20272;-70
2023/06/24 11:07:30;;;;;;;3.53;3.22;;;23.60;63.80;;;;;;5093918;28;20275;-70
2023/06/24 11:10:26;;;;;;;3.42;3.13;;;23.70;64.00;;;;;;5101518;28;20177;-70
2023/06/24 11:12:52;;;;;;;3.60;3.13;;;23.70;63.90;;;;;;5075633;28;20712;-70
2023/06/24 11:15:19;;;;;;;4.50;3.00;;;23.60;63.80;;;;;;5108907;27;20181;-70
2023/06/24 11:17:45;;;;;;;3.70;3.40;;;23.60;63.60;;;;;;5105166;28;20184;-71
2023/06/24 11:20:14;;;;;;;3.63;3.33;;;23.60;63.50;;;;;;5077483;28;20229;-70
2023/06/24 11:22:42;;;;;;;3.58;3.28;;;23.60;63.80;;;;;;5096763;28;20240;-70
2023/06/24 11:25:23;;;;;;;3.35;2.90;;;23.70;63.60;;;;;;5088628;28;20195;-71
2023/06/24 11:27:53;;;;;;;3.28;2.97;;;23.70;63.80;;;;;;5105223;28;20211;-71
2023/06/24 11:30:19;;;;;;;3.30;3.00;;;23.60;63.60;;;;;;5076880;28;20212;-71
2023/06/24 11:32:45;;;;;;;2.90;2.70;;;23.70;63.70;;;;;;5079362;28;20584;-71
2023/06/24 11:35:15;;;;;;;3.38;3.17;;;23.70;63.80;;;;;;5090797;28;20184;-70
2023/06/24 11:37:47;;;;;;;3.30;3.00;;;23.60;63.70;;;;;;5073845;28;20267;-71
2023/06/24 11:40:16;;;;;;;3.53;3.22;;;23.70;63.90;;;;;;5090651;28;20188;-70
2023/06/24 11:42:44;;;;;;;4.47;3.13;;;23.70;63.80;;;;;;5103726;28;20235;-71
2023/06/24 11:45:13;;;;;;;3.00;2.80;;;23.70;63.90;;;;;;5093698;28;20189;-71
2023/06/24 11:47:39;;;;;;;3.42;3.13;;;23.70;64.00;;;;;;5097892;28;20187;-71
2023/06/24 11:50:07;;;;;;;2.95;2.75;;;23.70;63.70;;;;;;5115549;27;20182;-70
2023/06/24 11:52:36;;;;;;;3.40;3.10;;;23.70;63.80;;;;;;5089256;28;20197;-70
2023/06/24 11:55:03;;;;;;;3.03;2.83;;;23.70;63.80;;;;;;5081342;28;20184;-70
2023/06/24 11:57:51;;;;;;;3.30;3.03;;;23.70;63.60;;;;;;5090004;28;20237;-70
2023/06/24 12:00:41;;;;;;;3.53;3.22;;;23.70;63.40;;;;;;5091535;28;20287;-71
2023/06/24 12:03:09;;;;;;;2.90;2.67;;;23.70;63.30;;;;;;5102122;28;20234;-70
2023/06/24 12:05:36;;;;;;;3.47;3.20;;;23.70;63.50;;;;;;5117578;27;20255;-71
2023/06/24 12:08:04;;;;;;;3.47;3.17;;;23.70;63.60;;;;;;5093731;28;20231;-70
2023/06/24 12:10:34;;;;;;;3.40;3.10;;;23.70;63.50;;;;;;5102788;28;20180;-70
2023/06/24 12:13:05;;;;;;;2.97;2.78;;;23.70;63.50;;;;;;5101029;28;20586;-71
2023/06/24 12:15:32;;;;;;;2.70;2.45;;;23.70;63.70;;;;;;5091328;28;20253;-70
2023/06/24 12:17:58;;;;;;;2.80;2.60;;;23.70;63.60;;;;;;5105131;28;20179;-70
2023/06/24 12:20:26;;;;;;;3.08;2.78;;;23.70;63.60;;;;;;5103078;27;20194;-70
2023/06/24 12:22:52;;;;;;;3.42;3.13;;;23.70;63.60;;;;;;5077616;28;20268;-71
2023/06/24 12:25:18;;;;;;;3.40;3.10;;;23.70;63.60;;;;;;5083071;28;20662;-70
2023/06/24 12:27:44;;;;;;;3.38;3.08;;;23.70;63.50;;;;;;5118257;27;20188;-70
2023/06/24 12:30:11;;;;;;;3.47;3.17;;;23.70;63.40;;;;;;5084586;28;20191;-70
2023/06/24 12:32:38;;;;;;;3.50;3.20;;;23.70;63.30;;;;;;5118042;27;20275;-70
2023/06/24 12:35:04;;;;;;;3.00;2.80;;;23.70;63.30;;;;;;5109769;28;20176;-71
2023/06/24 12:37:32;;;;;;;2.95;2.72;;;23.70;63.50;;;;;;5106178;28;20603;-71
2023/06/24 12:39:59;;;;;;;3.67;3.38;;;23.70;63.10;;;;;;5089394;28;20658;-70
2023/06/24 12:42:26;;;;;;;3.30;3.00;;;23.70;63.30;;;;;;5088376;28;20204;-70
2023/06/24 12:44:52;;;;;;;3.17;2.97;;;23.70;63.00;;;;;;5097765;28;20650;-70
2023/06/24 12:47:18;;;;;;;2.95;2.75;;;23.70;63.20;;;;;;5105912;28;20180;-70
2023/06/24 12:49:44;;;;;;;3.00;2.80;;;23.70;63.30;;;;;;5080748;28;20299;-70